sensor_id;sensor_type;location;lat;lon;timestamp;pressure;altitude;pressure_sealevel;temperature;humidity
77574;BME280;66710;48.868;9.080;2023-07-28T00:01:28;97324.28;;;16.71;85.74
77574;BME280;66710;48.868;9.080;2023-07-28T00:03:53;97324.28;;;16.71;85.73
77574;BME280;66710;48.868;9.080;2023-07-28T00:06:19;97319.41;;;16.76;85.18
77574;BME280;66710;48.868;9.080;2023-07-28T00:08:44;97326.06;;;16.75;85.24
77574;BME280;66710;48.868;9.080;2023-07-28T00:11:14;97324.38;;;16.92;84.22
77574;BME280;66710;48.868;9.080;2023-07-28T00:13:40;97328.53;;;17.07;83.24
77574;BME280;66710;48.868;9.080;2023-07-28T00:16:06;97324.16;;;17.05;82.90
77574;BME280;66710;48.868;9.080;2023-07-28T00:18:32;97326.13;;;17.05;82.96
77574;BME280;66710;48.868;9.080;2023-07-28T00:20:58;97327.06;;;17.09;82.51
77574;BME280;66710;48.868;9.080;2023-07-28T00:23:24;97322.53;;;17.04;82.44
77574;BME280;66710;48.868;9.080;2023-07-28T00:25:50;97319.31;;;17.02;82.73
77574;BME280;66710;48.868;9.080;2023-07-28T00:28:16;97307.19;;;17.03;82.25
77574;BME280;66710;48.868;9.080;2023-07-28T00:30:41;97307.69;;;16.97;82.88
77574;BME280;66710;48.868;9.080;2023-07-28T00:33:06;97312.41;;;16.96;82.43
77574;BME280;66710;48.868;9.080;2023-07-28T00:35:32;97310.81;;;16.86;83.08
77574;BME280;66710;48.868;9.080;2023-07-28T00:37:57;97302.72;;;16.81;83.29
77574;BME280;66710;48.868;9.080;2023-07-28T00:40:22;97307.09;;;16.82;83.23
77574;BME280;66710;48.868;9.080;2023-07-28T00:42:48;97309.22;;;16.77;83.52
77574;BME280;66710;48.868;9.080;2023-07-28T00:45:13;97304.53;;;16.77;83.23
77574;BME280;66710;48.868;9.080;2023-07-28T00:47:39;97318.78;;;16.71;83.72
77574;BME280;66710;48.868;9.080;2023-07-28T00:50:05;97316.81;;;16.71;83.62
77574;BME280;66710;48.868;9.080;2023-07-28T00:52:31;97310.19;;;16.72;83.59
77574;BME280;66710;48.868;9.080;2023-07-28T00:54:57;97314.47;;;16.61;84.37
77574;BME280;66710;48.868;9.080;2023-07-28T00:57:22;97318.34;;;16.60;84.18
77574;BME280;66710;48.868;9.080;2023-07-28T00:59:48;97310.09;;;16.60;84.21
77574;BME280;66710;48.868;9.080;2023-07-28T01:02:13;97311.22;;;16.59;84.53
77574;BME280;66710;48.868;9.080;2023-07-28T01:04:39;97312.84;;;16.60;84.30
77574;BME280;66710;48.868;9.080;2023-07-28T01:10:11;97322.66;;;16.22;87.00
77574;BME280;66710;48.868;9.080;2023-07-28T01:12:38;97327.06;;;15.97;89.64
77574;BME280;66710;48.868;9.080;2023-07-28T01:15:03;97322.38;;;15.80;90.66
77574;BME280;66710;48.868;9.080;2023-07-28T01:17:29;97321.03;;;16.04;88.42
77574;BME280;66710;48.868;9.080;2023-07-28T01:19:55;97318.16;;;16.00;88.15
77574;BME280;66710;48.868;9.080;2023-07-28T01:27:51;97313.13;;;15.50;92.55
77574;BME280;66710;48.868;9.080;2023-07-28T01:30:17;97311.50;;;15.40;93.37
77574;BME280;66710;48.868;9.080;2023-07-28T01:32:44;97309.91;;;15.48;91.97
77574;BME280;66710;48.868;9.080;2023-07-28T01:35:10;97309.91;;;15.57;91.10
77574;BME280;66710;48.868;9.080;2023-07-28T01:37:35;97310.41;;;15.59;91.41
77574;BME280;66710;48.868;9.080;2023-07-28T01:40:00;97311.19;;;15.68;89.87
77574;BME280;66710;48.868;9.080;2023-07-28T01:42:26;97310.75;;;15.75;89.27
77574;BME280;66710;48.868;9.080;2023-07-28T01:44:51;97316.25;;;15.83;88.55
77574;BME280;66710;48.868;9.080;2023-07-28T01:47:17;97311.06;;;15.82;88.76
77574;BME280;66710;48.868;9.080;2023-07-28T01:49:42;97307.31;;;15.86;88.18
77574;BME280;66710;48.868;9.080;2023-07-28T01:52:07;97311.53;;;16.01;87.41
77574;BME280;66710;48.868;9.080;2023-07-28T01:54:33;97310.03;;;16.13;86.60
77574;BME280;66710;48.868;9.080;2023-07-28T01:56:58;97295.50;;;16.21;85.98
77574;BME280;66710;48.868;9.080;2023-07-28T01:59:23;97291.56;;;16.30;85.42
77574;BME280;66710;48.868;9.080;2023-07-28T02:01:49;97301.13;;;16.33;84.96
77574;BME280;66710;48.868;9.080;2023-07-28T02:04:14;97296.59;;;16.28;85.50
77574;BME280;66710;48.868;9.080;2023-07-28T02:06:40;97298.53;;;16.28;85.84
77574;BME280;66710;48.868;9.080;2023-07-28T02:09:06;97300.78;;;16.35;85.28
77574;BME280;66710;48.868;9.080;2023-07-28T02:11:31;97301.28;;;16.37;85.19
77574;BME280;66710;48.868;9.080;2023-07-28T02:13:56;97298.38;;;16.33;85.31
77574;BME280;66710;48.868;9.080;2023-07-28T02:16:23;97301.88;;;16.42;84.79
77574;BME280;66710;48.868;9.080;2023-07-28T02:18:49;97295.13;;;16.40;84.99
77574;BME280;66710;48.868;9.080;2023-07-28T02:21:14;97305.56;;;16.55;84.36
77574;BME280;66710;48.868;9.080;2023-07-28T02:23:39;97303.34;;;16.48;84.39
77574;BME280;66710;48.868;9.080;2023-07-28T02:26:05;97300.72;;;16.61;83.67
77574;BME280;66710;48.868;9.080;2023-07-28T02:28:30;97301.06;;;16.51;84.44
77574;BME280;66710;48.868;9.080;2023-07-28T02:30:55;97307.97;;;16.57;83.81
77574;BME280;66710;48.868;9.080;2023-07-28T02:33:21;97302.13;;;16.67;83.18
77574;BME280;66710;48.868;9.080;2023-07-28T02:35:46;97298.91;;;16.65;83.08
77574;BME280;66710;48.868;9.080;2023-07-28T02:38:11;97302.09;;;16.76;82.77
77574;BME280;66710;48.868;9.080;2023-07-28T02:40:37;97299.00;;;16.77;82.09
77574;BME280;66710;48.868;9.080;2023-07-28T02:43:02;97307.78;;;16.71;82.64
77574;BME280;66710;48.868;9.080;2023-07-28T02:45:28;97309.88;;;16.74;82.41
77574;BME280;66710;48.868;9.080;2023-07-28T02:47:53;97316.69;;;16.67;82.81
77574;BME280;66710;48.868;9.080;2023-07-28T02:50:18;97315.88;;;16.67;82.74
77574;BME280;66710;48.868;9.080;2023-07-28T02:52:44;97323.00;;;16.68;83.01
77574;BME280;66710;48.868;9.080;2023-07-28T02:55:09;97325.13;;;16.62;83.27
77574;BME280;66710;48.868;9.080;2023-07-28T02:57:34;97325.34;;;16.48;84.29
77574;BME280;66710;48.868;9.080;2023-07-28T03:00:00;97326.03;;;16.28;85.69
77574;BME280;66710;48.868;9.080;2023-07-28T03:02:25;97335.25;;;16.23;86.37
77574;BME280;66710;48.868;9.080;2023-07-28T03:04:50;97341.41;;;16.29;86.15
77574;BME280;66710;48.868;9.080;2023-07-28T03:07:16;97342.97;;;16.39;84.87
77574;BME280;66710;48.868;9.080;2023-07-28T03:09:42;97345.56;;;16.44;84.91
77574;BME280;66710;48.868;9.080;2023-07-28T03:12:08;97353.81;;;16.44;84.57
77574;BME280;66710;48.868;9.080;2023-07-28T03:14:33;97358.84;;;16.42;84.70
77574;BME280;66710;48.868;9.080;2023-07-28T03:16:58;97362.53;;;16.46;84.70
77574;BME280;66710;48.868;9.080;2023-07-28T03:19:24;97365.28;;;16.37;85.18
77574;BME280;66710;48.868;9.080;2023-07-28T03:21:49;97367.25;;;16.37;85.30
77574;BME280;66710;48.868;9.080;2023-07-28T03:24:14;97375.31;;;16.42;85.01
77574;BME280;66710;48.868;9.080;2023-07-28T03:26:40;97383.25;;;16.35;85.61
77574;BME280;66710;48.868;9.080;2023-07-28T03:29:05;97381.47;;;16.30;86.24
77574;BME280;66710;48.868;9.080;2023-07-28T03:31:31;97379.06;;;16.20;86.85
77574;BME280;66710;48.868;9.080;2023-07-28T03:33:56;97385.72;;;16.19;87.33
77574;BME280;66710;48.868;9.080;2023-07-28T03:36:21;97395.88;;;16.27;86.82
77574;BME280;66710;48.868;9.080;2023-07-28T03:38:47;97404.09;;;16.36;86.68
77574;BME280;66710;48.868;9.080;2023-07-28T03:41:13;97398.28;;;16.37;86.32
77574;BME280;66710;48.868;9.080;2023-07-28T03:43:40;97405.56;;;16.33;86.64
77574;BME280;66710;48.868;9.080;2023-07-28T03:46:06;97411.88;;;16.34;87.07
77574;BME280;66710;48.868;9.080;2023-07-28T03:48:31;97409.97;;;16.17;87.86
77574;BME280;66710;48.868;9.080;2023-07-28T03:50:57;97405.91;;;16.14;88.22
77574;BME280;66710;48.868;9.080;2023-07-28T03:53:22;97399.78;;;16.08;89.45
77574;BME280;66710;48.868;9.080;2023-07-28T03:55:48;97399.78;;;16.17;88.96
77574;BME280;66710;48.868;9.080;2023-07-28T03:58:13;97401.38;;;16.27;87.79
77574;BME280;66710;48.868;9.080;2023-07-28T04:00:38;97388.25;;;16.50;86.77
77574;BME280;66710;48.868;9.080;2023-07-28T04:03:04;97385.31;;;16.46;86.68
77574;BME280;66710;48.868;9.080;2023-07-28T04:05:29;97386.63;;;16.49;86.54
77574;BME280;66710;48.868;9.080;2023-07-28T04:07:54;97387.59;;;16.53;86.06
77574;BME280;66710;48.868;9.080;2023-07-28T04:10:20;97388.06;;;16.55;86.15
77574;BME280;66710;48.868;9.080;2023-07-28T04:12:45;97385.47;;;16.59;85.69
77574;BME280;66710;48.868;9.080;2023-07-28T04:15:10;97385.31;;;16.55;86.09
77574;BME280;66710;48.868;9.080;2023-07-28T04:17:36;97387.25;;;16.63;85.92
77574;BME280;66710;48.868;9.080;2023-07-28T04:20:01;97379.31;;;16.62;86.12
77574;BME280;66710;48.868;9.080;2023-07-28T04:22:27;97382.72;;;16.59;86.00
77574;BME280;66710;48.868;9.080;2023-07-28T04:24:52;97379.00;;;16.55;86.58
77574;BME280;66710;48.868;9.080;2023-07-28T04:27:19;97370.00;;;16.37;88.55
77574;BME280;66710;48.868;9.080;2023-07-28T04:29:44;97373.09;;;16.26;88.31
77574;BME280;66710;48.868;9.080;2023-07-28T04:32:10;97377.47;;;16.19;90.04
77574;BME280;66710;48.868;9.080;2023-07-28T04:34:35;97375.34;;;16.24;89.90
77574;BME280;66710;48.868;9.080;2023-07-28T04:37:01;97376.63;;;16.27;90.38
77574;BME280;66710;48.868;9.080;2023-07-28T04:39:26;97372.13;;;16.22;91.09
77574;BME280;66710;48.868;9.080;2023-07-28T04:41:51;97370.34;;;16.18;91.68
77574;BME280;66710;48.868;9.080;2023-07-28T04:44:17;97366.94;;;16.21;91.86
77574;BME280;66710;48.868;9.080;2023-07-28T04:46:43;97374.56;;;16.24;91.85
77574;BME280;66710;48.868;9.080;2023-07-28T04:49:08;97370.19;;;16.23;92.91
77574;BME280;66710;48.868;9.080;2023-07-28T04:51:33;97383.28;;;16.08;96.79
77574;BME280;66710;48.868;9.080;2023-07-28T04:53:58;97381.50;;;16.04;96.68
77574;BME280;66710;48.868;9.080;2023-07-28T04:56:24;97378.28;;;16.02;97.94
77574;BME280;66710;48.868;9.080;2023-07-28T04:58:49;97376.16;;;15.99;99.08
77574;BME280;66710;48.868;9.080;2023-07-28T05:01:14;97384.41;;;15.99;99.72
77574;BME280;66710;48.868;9.080;2023-07-28T05:03:41;97393.63;;;16.03;100.00
77574;BME280;66710;48.868;9.080;2023-07-28T05:06:06;97386.50;;;16.10;98.60
77574;BME280;66710;48.868;9.080;2023-07-28T05:08:31;97394.91;;;16.14;96.28
77574;BME280;66710;48.868;9.080;2023-07-28T05:10:57;97393.13;;;16.36;93.36
77574;BME280;66710;48.868;9.080;2023-07-28T05:13:22;97384.22;;;16.30;94.37
77574;BME280;66710;48.868;9.080;2023-07-28T05:15:47;97394.28;;;16.26;95.06
77574;BME280;66710;48.868;9.080;2023-07-28T05:18:12;97399.78;;;16.26;96.68
77574;BME280;66710;48.868;9.080;2023-07-28T05:20:38;97397.03;;;16.17;98.61
77574;BME280;66710;48.868;9.080;2023-07-28T05:23:03;97405.44;;;16.12;99.04
77574;BME280;66710;48.868;9.080;2023-07-28T05:25:28;97401.06;;;16.11;99.53
77574;BME280;66710;48.868;9.080;2023-07-28T05:27:54;97400.25;;;16.10;99.88
77574;BME280;66710;48.868;9.080;2023-07-28T05:30:19;97400.88;;;16.16;98.72
77574;BME280;66710;48.868;9.080;2023-07-28T05:32:45;97411.88;;;16.16;97.75
77574;BME280;66710;48.868;9.080;2023-07-28T05:35:11;97415.31;;;16.22;97.00
77574;BME280;66710;48.868;9.080;2023-07-28T05:37:36;97412.88;;;16.29;97.54
77574;BME280;66710;48.868;9.080;2023-07-28T05:40:02;97415.09;;;16.27;97.12
77574;BME280;66710;48.868;9.080;2023-07-28T05:42:27;97411.88;;;16.34;96.10
77574;BME280;66710;48.868;9.080;2023-07-28T05:44:52;97427.41;;;16.38;97.13
77574;BME280;66710;48.868;9.080;2023-07-28T05:47:20;97423.72;;;16.34;98.80
77574;BME280;66710;48.868;9.080;2023-07-28T05:49:46;97432.59;;;16.40;99.75
77574;BME280;66710;48.868;9.080;2023-07-28T05:52:11;97431.13;;;16.42;98.49
77574;BME280;66710;48.868;9.080;2023-07-28T05:54:36;97434.50;;;16.39;99.07
77574;BME280;66710;48.868;9.080;2023-07-28T05:57:02;97432.09;;;16.38;99.65
77574;BME280;66710;48.868;9.080;2023-07-28T05:59:27;97437.59;;;16.38;99.51
77574;BME280;66710;48.868;9.080;2023-07-28T06:01:53;97437.25;;;16.39;98.84
77574;BME280;66710;48.868;9.080;2023-07-28T06:04:18;97442.75;;;16.48;98.73
77574;BME280;66710;48.868;9.080;2023-07-28T06:06:44;97436.28;;;16.53;98.62
77574;BME280;66710;48.868;9.080;2023-07-28T06:09:09;97429.81;;;16.57;98.47
77574;BME280;66710;48.868;9.080;2023-07-28T06:11:34;97437.41;;;16.60;98.30
77574;BME280;66710;48.868;9.080;2023-07-28T06:13:59;97437.56;;;16.64;97.98
77574;BME280;66710;48.868;9.080;2023-07-28T06:16:25;97439.00;;;16.70;97.85
77574;BME280;66710;48.868;9.080;2023-07-28T06:18:52;97436.25;;;16.70;97.68
77574;BME280;66710;48.868;9.080;2023-07-28T06:21:17;97444.03;;;16.68;98.55
77574;BME280;66710;48.868;9.080;2023-07-28T06:23:43;97444.34;;;16.75;98.39
77574;BME280;66710;48.868;9.080;2023-07-28T06:26:08;97445.44;;;16.83;98.28
77574;BME280;66710;48.868;9.080;2023-07-28T06:28:33;97441.75;;;16.79;99.27
77574;BME280;66710;48.868;9.080;2023-07-28T06:30:59;97449.84;;;16.84;98.53
77574;BME280;66710;48.868;9.080;2023-07-28T06:33:25;97460.38;;;16.73;99.61
77574;BME280;66710;48.868;9.080;2023-07-28T06:35:50;97458.59;;;16.68;99.41
77574;BME280;66710;48.868;9.080;2023-07-28T06:38:17;97455.34;;;16.75;99.45
77574;BME280;66710;48.868;9.080;2023-07-28T06:40:42;97452.44;;;16.80;100.00
77574;BME280;66710;48.868;9.080;2023-07-28T06:43:38;97460.34;;;16.82;99.49
77574;BME280;66710;48.868;9.080;2023-07-28T06:46:02;97446.25;;;16.92;99.82
77574;BME280;66710;48.868;9.080;2023-07-28T06:48:28;97439.94;;;17.00;99.45
77574;BME280;66710;48.868;9.080;2023-07-28T06:50:53;97448.63;;;17.11;99.12
77574;BME280;66710;48.868;9.080;2023-07-28T06:53:19;97454.28;;;17.15;99.67
77574;BME280;66710;48.868;9.080;2023-07-28T06:55:44;97460.44;;;17.12;100.00
77574;BME280;66710;48.868;9.080;2023-07-28T06:58:10;97463.47;;;17.28;98.69
77574;BME280;66710;48.868;9.080;2023-07-28T07:00:35;97471.03;;;17.39;97.92
77574;BME280;66710;48.868;9.080;2023-07-28T07:03:01;97477.59;;;17.56;96.03
77574;BME280;66710;48.868;9.080;2023-07-28T07:05:26;97486.94;;;17.72;97.19
77574;BME280;66710;48.868;9.080;2023-07-28T07:07:51;97481.41;;;17.42;96.71
77574;BME280;66710;48.868;9.080;2023-07-28T07:10:17;97477.50;;;17.73;96.44
77574;BME280;66710;48.868;9.080;2023-07-28T07:12:43;97483.06;;;17.65;97.78
77574;BME280;66710;48.868;9.080;2023-07-28T07:15:08;97479.94;;;17.75;98.83
77574;BME280;66710;48.868;9.080;2023-07-28T07:17:34;97472.81;;;17.74;96.53
77574;BME280;66710;48.868;9.080;2023-07-28T07:20:00;97484.38;;;17.97;94.23
77574;BME280;66710;48.868;9.080;2023-07-28T07:22:25;97480.75;;;17.75;93.18
77574;BME280;66710;48.868;9.080;2023-07-28T07:24:50;97482.06;;;17.69;95.75
77574;BME280;66710;48.868;9.080;2023-07-28T07:27:16;97481.97;;;17.95;95.22
77574;BME280;66710;48.868;9.080;2023-07-28T07:29:41;97481.09;;;18.25;93.96
77574;BME280;66710;48.868;9.080;2023-07-28T07:32:07;97479.38;;;18.41;94.18
77574;BME280;66710;48.868;9.080;2023-07-28T07:34:33;97479.09;;;18.55;90.74
77574;BME280;66710;48.868;9.080;2023-07-28T07:36:59;97474.38;;;18.55;91.44
77574;BME280;66710;48.868;9.080;2023-07-28T07:39:24;97480.88;;;18.72;87.95
77574;BME280;66710;48.868;9.080;2023-07-28T07:41:50;97480.69;;;18.56;87.77
77574;BME280;66710;48.868;9.080;2023-07-28T07:44:15;97488.09;;;18.64;90.46
77574;BME280;66710;48.868;9.080;2023-07-28T07:46:40;97486.59;;;18.67;88.29
77574;BME280;66710;48.868;9.080;2023-07-28T07:49:06;97490.53;;;18.66;88.18
77574;BME280;66710;48.868;9.080;2023-07-28T07:51:31;97493.16;;;18.83;88.49
77574;BME280;66710;48.868;9.080;2023-07-28T07:53:59;97497.88;;;18.74;89.05
77574;BME280;66710;48.868;9.080;2023-07-28T07:56:24;97503.97;;;18.88;88.79
77574;BME280;66710;48.868;9.080;2023-07-28T07:58:49;97501.59;;;18.99;88.22
77574;BME280;66710;48.868;9.080;2023-07-28T08:01:14;97501.28;;;18.80;89.90
77574;BME280;66710;48.868;9.080;2023-07-28T08:03:40;97509.41;;;18.97;88.05
77574;BME280;66710;48.868;9.080;2023-07-28T08:06:05;97513.78;;;18.98;89.06
77574;BME280;66710;48.868;9.080;2023-07-28T08:08:31;97516.63;;;18.47;92.45
77574;BME280;66710;48.868;9.080;2023-07-28T08:10:56;97522.81;;;18.65;90.19
77574;BME280;66710;48.868;9.080;2023-07-28T08:13:21;97520.47;;;18.55;89.06
77574;BME280;66710;48.868;9.080;2023-07-28T08:15:47;97522.81;;;18.65;88.89
77574;BME280;66710;48.868;9.080;2023-07-28T08:18:13;97520.22;;;18.81;87.09
77574;BME280;66710;48.868;9.080;2023-07-28T08:20:38;97523.59;;;19.08;87.31
77574;BME280;66710;48.868;9.080;2023-07-28T08:23:04;97523.22;;;18.97;86.94
77574;BME280;66710;48.868;9.080;2023-07-28T08:25:29;97521.97;;;19.07;86.66
77574;BME280;66710;48.868;9.080;2023-07-28T08:27:55;97532.72;;;19.21;85.08
77574;BME280;66710;48.868;9.080;2023-07-28T08:30:20;97530.34;;;19.44;83.88
77574;BME280;66710;48.868;9.080;2023-07-28T08:32:46;97539.78;;;19.43;85.00
77574;BME280;66710;48.868;9.080;2023-07-28T08:35:11;97532.94;;;19.16;85.70
77574;BME280;66710;48.868;9.080;2023-07-28T08:37:37;97536.78;;;19.36;83.78
77574;BME280;66710;48.868;9.080;2023-07-28T08:40:02;97540.00;;;19.25;85.00
77574;BME280;66710;48.868;9.080;2023-07-28T08:42:30;97542.84;;;19.17;84.04
77574;BME280;66710;48.868;9.080;2023-07-28T08:44:55;97538.63;;;19.44;82.90
77574;BME280;66710;48.868;9.080;2023-07-28T08:47:21;97538.81;;;19.26;82.88
77574;BME280;66710;48.868;9.080;2023-07-28T08:49:47;97544.44;;;19.18;82.49
77574;BME280;66710;48.868;9.080;2023-07-28T08:52:15;97541.59;;;19.26;82.10
77574;BME280;66710;48.868;9.080;2023-07-28T08:54:41;97541.63;;;19.39;81.24
77574;BME280;66710;48.868;9.080;2023-07-28T08:57:06;97549.63;;;19.19;81.37
77574;BME280;66710;48.868;9.080;2023-07-28T08:59:32;97551.91;;;19.50;80.90
77574;BME280;66710;48.868;9.080;2023-07-28T09:01:57;97543.47;;;19.35;79.46
77574;BME280;66710;48.868;9.080;2023-07-28T09:04:24;97555.34;;;19.47;78.92
77574;BME280;66710;48.868;9.080;2023-07-28T09:06:50;97550.63;;;19.60;78.88
77574;BME280;66710;48.868;9.080;2023-07-28T09:09:18;97550.78;;;19.76;78.12
77574;BME280;66710;48.868;9.080;2023-07-28T09:11:46;97548.31;;;19.50;78.82
77574;BME280;66710;48.868;9.080;2023-07-28T09:14:14;97553.63;;;19.67;77.62
77574;BME280;66710;48.868;9.080;2023-07-28T09:16:41;97556.41;;;19.67;78.50
77574;BME280;66710;48.868;9.080;2023-07-28T09:19:08;97553.63;;;19.67;78.99
77574;BME280;66710;48.868;9.080;2023-07-28T09:21:34;97539.41;;;19.78;77.03
77574;BME280;66710;48.868;9.080;2023-07-28T09:24:00;97550.81;;;19.88;76.09
77574;BME280;66710;48.868;9.080;2023-07-28T09:29:16;97551.84;;;19.84;74.82
77574;BME280;66710;48.868;9.080;2023-07-28T09:31:43;97555.31;;;19.93;74.79
77574;BME280;66710;48.868;9.080;2023-07-28T09:34:09;97548.63;;;19.82;74.93
77574;BME280;66710;48.868;9.080;2023-07-28T09:36:35;97547.00;;;20.05;74.23
77574;BME280;66710;48.868;9.080;2023-07-28T09:39:03;97549.06;;;20.33;73.30
77574;BME280;66710;48.868;9.080;2023-07-28T09:41:29;97551.00;;;20.33;73.95
77574;BME280;66710;48.868;9.080;2023-07-28T09:43:55;97553.09;;;20.36;72.68
77574;BME280;66710;48.868;9.080;2023-07-28T09:46:22;97538.09;;;20.49;71.02
77574;BME280;66710;48.868;9.080;2023-07-28T09:48:52;97544.06;;;20.51;71.18
77574;BME280;66710;48.868;9.080;2023-07-28T09:51:20;97550.09;;;20.41;70.76
77574;BME280;66710;48.868;9.080;2023-07-28T09:53:55;97543.72;;;20.53;71.54
77574;BME280;66710;48.868;9.080;2023-07-28T09:56:25;97543.72;;;20.65;70.79
77574;BME280;66710;48.868;9.080;2023-07-28T09:58:52;97542.44;;;20.50;71.44
77574;BME280;66710;48.868;9.080;2023-07-28T10:01:19;97545.66;;;20.64;71.46
77574;BME280;66710;48.868;9.080;2023-07-28T10:03:47;97542.97;;;20.80;71.60
77574;BME280;66710;48.868;9.080;2023-07-28T10:06:12;97546.56;;;21.09;70.22
77574;BME280;66710;48.868;9.080;2023-07-28T10:08:39;97541.81;;;20.81;69.56
77574;BME280;66710;48.868;9.080;2023-07-28T10:11:05;97549.38;;;20.97;68.73
77574;BME280;66710;48.868;9.080;2023-07-28T10:13:40;97546.66;;;21.13;70.26
77574;BME280;66710;48.868;9.080;2023-07-28T10:16:07;97556.00;;;20.80;69.73
77574;BME280;66710;48.868;9.080;2023-07-28T10:18:34;97551.03;;;20.86;69.75
77574;BME280;66710;48.868;9.080;2023-07-28T10:21:10;97550.19;;;20.97;69.36
77574;BME280;66710;48.868;9.080;2023-07-28T10:23:39;97545.38;;;21.10;69.10
77574;BME280;66710;48.868;9.080;2023-07-28T10:26:05;97564.44;;;21.12;69.44
77574;BME280;66710;48.868;9.080;2023-07-28T10:28:39;97557.59;;;20.93;70.88
77574;BME280;66710;48.868;9.080;2023-07-28T10:31:11;97562.81;;;20.82;69.78
77574;BME280;66710;48.868;9.080;2023-07-28T10:33:38;97570.63;;;20.93;69.88
77574;BME280;66710;48.868;9.080;2023-07-28T10:39:13;97568.22;;;20.91;70.11
77574;BME280;66710;48.868;9.080;2023-07-28T10:41:59;97572.75;;;20.71;70.15
77574;BME280;66710;48.868;9.080;2023-07-28T10:44:25;97572.31;;;20.57;70.10
77574;BME280;66710;48.868;9.080;2023-07-28T10:46:50;97579.72;;;20.53;70.48
77574;BME280;66710;48.868;9.080;2023-07-28T10:49:16;97570.69;;;20.56;70.52
77574;BME280;66710;48.868;9.080;2023-07-28T10:51:42;97574.19;;;20.65;70.59
77574;BME280;66710;48.868;9.080;2023-07-28T10:54:07;97582.38;;;20.61;70.69
77574;BME280;66710;48.868;9.080;2023-07-28T10:56:32;97575.53;;;20.71;70.51
77574;BME280;66710;48.868;9.080;2023-07-28T10:59:02;97588.13;;;20.69;70.81
77574;BME280;66710;48.868;9.080;2023-07-28T11:01:36;97577.50;;;20.58;70.87
77574;BME280;66710;48.868;9.080;2023-07-28T11:04:17;97585.25;;;20.40;71.77
77574;BME280;66710;48.868;9.080;2023-07-28T11:06:47;97582.47;;;20.53;71.71
77574;BME280;66710;48.868;9.080;2023-07-28T11:09:14;97579.19;;;20.75;71.88
77574;BME280;66710;48.868;9.080;2023-07-28T11:11:42;97581.38;;;20.82;71.11
77574;BME280;66710;48.868;9.080;2023-07-28T11:14:08;97579.69;;;21.06;70.59
77574;BME280;66710;48.868;9.080;2023-07-28T11:16:39;97586.38;;;21.05;70.36
77574;BME280;66710;48.868;9.080;2023-07-28T11:19:11;97581.66;;;21.05;70.58
77574;BME280;66710;48.868;9.080;2023-07-28T11:21:41;97575.06;;;21.10;69.68
77574;BME280;66710;48.868;9.080;2023-07-28T11:24:07;97580.53;;;21.22;69.72
77574;BME280;66710;48.868;9.080;2023-07-28T11:26:36;97581.69;;;21.21;68.91
77574;BME280;66710;48.868;9.080;2023-07-28T11:29:03;97576.88;;;21.46;68.69
77574;BME280;66710;48.868;9.080;2023-07-28T11:31:29;97577.38;;;21.96;67.24
77574;BME280;66710;48.868;9.080;2023-07-28T11:33:54;97578.25;;;22.00;67.22
77574;BME280;66710;48.868;9.080;2023-07-28T11:36:24;97571.34;;;22.97;65.96
77574;BME280;66710;48.868;9.080;2023-07-28T11:38:51;97566.94;;;22.96;65.31
77574;BME280;66710;48.868;9.080;2023-07-28T11:41:17;97577.09;;;22.17;65.66
77574;BME280;66710;48.868;9.080;2023-07-28T11:43:42;97578.09;;;22.60;65.06
77574;BME280;66710;48.868;9.080;2023-07-28T11:46:35;97572.25;;;22.30;65.42
77574;BME280;66710;48.868;9.080;2023-07-28T11:51:45;97563.94;;;22.85;63.10
77574;BME280;66710;48.868;9.080;2023-07-28T11:54:31;97571.56;;;22.52;66.16
77574;BME280;66710;48.868;9.080;2023-07-28T11:56:56;97577.09;;;22.17;65.61
77574;BME280;66710;48.868;9.080;2023-07-28T11:59:23;97575.81;;;21.83;66.24
77574;BME280;66710;48.868;9.080;2023-07-28T12:01:58;97577.81;;;21.98;67.49
77574;BME280;66710;48.868;9.080;2023-07-28T12:04:32;97579.78;;;21.98;68.67
77574;BME280;66710;48.868;9.080;2023-07-28T12:07:12;97573.78;;;21.64;71.49
77574;BME280;66710;48.868;9.080;2023-07-28T12:12:18;97583.34;;;21.38;75.61
77574;BME280;66710;48.868;9.080;2023-07-28T12:14:44;97588.97;;;21.54;75.03
77574;BME280;66710;48.868;9.080;2023-07-28T12:17:17;97583.91;;;21.15;74.27
77574;BME280;66710;48.868;9.080;2023-07-28T12:19:56;97598.28;;;21.05;75.39
77574;BME280;66710;48.868;9.080;2023-07-28T12:22:22;97596.78;;;20.55;78.28
77574;BME280;66710;48.868;9.080;2023-07-28T12:24:47;97595.72;;;20.47;78.45
77574;BME280;66710;48.868;9.080;2023-07-28T12:27:13;97598.38;;;20.68;79.63
77574;BME280;66710;48.868;9.080;2023-07-28T12:29:39;97599.09;;;20.65;77.26
77574;BME280;66710;48.868;9.080;2023-07-28T12:32:04;97598.75;;;20.67;78.36
77574;BME280;66710;48.868;9.080;2023-07-28T12:34:30;97585.81;;;20.71;78.74
77574;BME280;66710;48.868;9.080;2023-07-28T12:36:55;97588.31;;;20.88;78.07
77574;BME280;66710;48.868;9.080;2023-07-28T12:39:21;97583.97;;;21.03;79.22
77574;BME280;66710;48.868;9.080;2023-07-28T12:41:46;97586.25;;;21.13;77.96
77574;BME280;66710;48.868;9.080;2023-07-28T12:44:11;97589.06;;;21.29;77.72
77574;BME280;66710;48.868;9.080;2023-07-28T12:46:36;97577.81;;;21.98;77.04
77574;BME280;66710;48.868;9.080;2023-07-28T12:49:03;97578.88;;;21.93;76.29
77574;BME280;66710;48.868;9.080;2023-07-28T12:51:28;97573.59;;;21.72;76.57
77574;BME280;66710;48.868;9.080;2023-07-28T12:53:53;97583.97;;;21.91;77.58
77574;BME280;66710;48.868;9.080;2023-07-28T12:56:19;97580.13;;;21.64;77.44
77574;BME280;66710;48.868;9.080;2023-07-28T12:58:44;97581.59;;;21.46;79.38
77574;BME280;66710;48.868;9.080;2023-07-28T13:01:09;97589.13;;;21.17;80.50
77574;BME280;66710;48.868;9.080;2023-07-28T13:03:37;97584.78;;;21.04;81.88
77574;BME280;66710;48.868;9.080;2023-07-28T13:06:03;97586.44;;;20.92;81.71
77574;BME280;66710;48.868;9.080;2023-07-28T13:08:29;97588.34;;;20.76;81.95
77574;BME280;66710;48.868;9.080;2023-07-28T13:10:54;97597.38;;;20.23;83.83
77574;BME280;66710;48.868;9.080;2023-07-28T13:13:19;97592.41;;;20.04;84.96
77574;BME280;66710;48.868;9.080;2023-07-28T13:15:45;97607.97;;;20.09;86.92